createdAt,value
2022-11-17T00:00:41.920Z,41.07
2022-11-17T00:03:13.570Z,21.75
2022-11-17T00:05:40.412Z,31.67
2022-11-17T00:08:07.103Z,31.73
2022-11-17T00:10:33.956Z,20.02
2022-11-17T00:13:19.136Z,30.88
2022-11-17T00:15:45.927Z,24.65
2022-11-17T00:18:31.340Z,31.40
2022-11-17T00:21:16.664Z,28.90
2022-11-17T00:23:50.834Z,28.52
2022-11-17T00:26:25.732Z,32.28
2022-11-17T00:29:00.448Z,27.55
2022-11-17T00:31:47.700Z,26.95
2022-11-17T00:34:23.952Z,18.33
2022-11-17T00:36:53.526Z,20.35
2022-11-17T00:39:22.920Z,22.10
2022-11-17T00:41:50.290Z,25.15
2022-11-17T00:44:17.868Z,24.10
2022-11-17T00:46:44.660Z,16.50
2022-11-17T00:49:12.147Z,20.00
2022-11-17T00:51:38.941Z,22.80
2022-11-17T00:54:07.326Z,18.10
2022-11-17T00:56:34.230Z,24.10
2022-11-17T00:59:01.188Z,23.70
2022-11-17T01:01:28.233Z,18.10
2022-11-17T01:04:03.610Z,17.08
2022-11-17T01:06:33.840Z,21.17
2022-11-17T01:09:02.617Z,16.90
2022-11-17T01:11:29.955Z,19.00
2022-11-17T01:13:59.056Z,19.38
2022-11-17T01:16:26.794Z,27.60
2022-11-17T01:18:54.017Z,18.42
2022-11-17T01:21:24.106Z,16.92
2022-11-17T01:23:53.805Z,17.65
2022-11-17T01:26:29.369Z,17.80
2022-11-17T01:28:57.105Z,15.43
2022-11-17T01:31:29.628Z,28.50
2022-11-17T01:33:57.314Z,24.98
2022-11-17T01:36:27.476Z,19.38
2022-11-17T01:38:54.972Z,24.55
2022-11-17T01:41:27.596Z,23.92
2022-11-17T01:43:59.472Z,29.35
2022-11-17T01:46:26.105Z,18.17
2022-11-17T01:48:57.779Z,14.52
2022-11-17T01:51:25.451Z,20.27
2022-11-17T01:53:52.743Z,26.38
2022-11-17T01:56:27.175Z,20.85
2022-11-17T01:59:01.083Z,21.55
2022-11-17T02:01:27.955Z,16.77
2022-11-17T02:03:54.832Z,20.60
2022-11-17T02:06:35.457Z,21.88
2022-11-17T02:09:04.625Z,17.95
2022-11-17T02:11:36.208Z,21.98
2022-11-17T02:14:05.565Z,26.27
2022-11-17T02:16:32.438Z,27.65
2022-11-17T02:18:59.301Z,34.53
2022-11-17T02:21:50.547Z,38.53
2022-11-17T02:24:31.756Z,22.75
2022-11-17T02:27:23.076Z,23.55
2022-11-17T02:30:06.583Z,32.45
2022-11-17T02:35:44.047Z,31.80
2022-11-17T02:38:10.616Z,27.75
2022-11-17T02:41:08.176Z,34.22
2022-11-17T02:44:02.286Z,27.25
2022-11-17T02:46:32.255Z,26.95
2022-11-17T02:49:05.174Z,37.15
2022-11-17T02:51:34.804Z,29.80
2022-11-17T02:54:02.254Z,33.65
2022-11-17T02:56:28.944Z,31.13
2022-11-17T02:59:00.635Z,33.03
2022-11-17T03:01:39.287Z,45.05
2022-11-17T03:04:22.419Z,37.60
2022-11-17T03:06:52.461Z,29.40
2022-11-17T03:09:30.421Z,37.50
2022-11-17T03:12:09.296Z,41.03
2022-11-17T03:15:09.088Z,29.95
2022-11-17T03:17:58.264Z,36.53
2022-11-17T03:20:31.366Z,31.17
2022-11-17T03:23:18.237Z,29.77
2022-11-17T03:25:53.341Z,34.50
2022-11-17T03:28:26.056Z,38.63
2022-11-17T03:30:54.204Z,36.88
2022-11-17T03:33:24.879Z,35.15
2022-11-17T03:36:05.478Z,37.53
2022-11-17T03:38:37.497Z,37.70
2022-11-17T03:41:08.088Z,36.45
2022-11-17T03:43:36.335Z,37.17
2022-11-17T03:46:08.815Z,36.50
2022-11-17T03:48:42.862Z,36.08
2022-11-17T03:51:19.158Z,41.92
2022-11-17T03:53:47.713Z,36.78
2022-11-17T03:56:39.846Z,34.95
2022-11-17T03:59:22.682Z,31.33
2022-11-17T04:01:49.468Z,45.92
2022-11-17T04:04:18.199Z,43.70
2022-11-17T04:06:44.885Z,40.25
2022-11-17T04:09:11.613Z,32.60
2022-11-17T04:11:57.272Z,38.38
2022-11-17T04:14:42.532Z,31.30
2022-11-17T04:17:09.301Z,38.55
2022-11-17T04:19:35.982Z,34.97
2022-11-17T04:22:02.605Z,28.70
2022-11-17T04:24:29.424Z,37.22
2022-11-17T04:27:14.996Z,36.20
2022-11-17T04:29:41.667Z,36.92
2022-11-17T04:32:08.315Z,38.13
2022-11-17T04:34:35.028Z,36.80
2022-11-17T04:37:06.927Z,35.25
2022-11-17T04:42:04.973Z,26.08
2022-11-17T04:44:32.336Z,29.02
2022-11-17T04:46:59.660Z,37.67
2022-11-17T04:49:26.313Z,25.55
2022-11-17T04:51:54.142Z,24.25
2022-11-17T04:54:24.790Z,38.95
2022-11-17T04:56:52.783Z,30.75
2022-11-17T04:59:19.771Z,34.88
2022-11-17T05:01:47.107Z,31.63
2022-11-17T05:04:35.813Z,30.48
2022-11-17T05:07:02.769Z,25.52
2022-11-17T05:09:29.426Z,36.78
2022-11-17T05:12:14.532Z,28.27
2022-11-17T05:14:41.199Z,37.22
2022-11-17T05:17:11.819Z,28.00
2022-11-17T05:19:44.535Z,45.13
2022-11-17T05:22:31.790Z,31.95
2022-11-17T05:24:58.481Z,28.52
2022-11-17T05:27:26.239Z,35.88
2022-11-17T05:29:53.100Z,33.92
2022-11-17T05:32:19.878Z,34.70
2022-11-17T05:34:46.603Z,34.17
2022-11-17T05:37:13.527Z,33.38
2022-11-17T05:39:40.253Z,31.77
2022-11-17T05:42:07.072Z,29.55
2022-11-17T05:44:33.923Z,41.42
2022-11-17T05:47:00.591Z,34.95
2022-11-17T05:49:27.236Z,30.65
2022-11-17T05:51:53.881Z,29.52
2022-11-17T05:54:20.722Z,31.33
2022-11-17T05:56:55.650Z,31.58
2022-11-17T05:59:36.656Z,30.05
2022-11-17T06:02:08.624Z,26.45
2022-11-17T06:04:35.601Z,34.22
2022-11-17T06:07:02.886Z,28.73
2022-11-17T06:09:33.231Z,27.38
2022-11-17T06:12:05.641Z,31.70
2022-11-17T06:14:33.169Z,41.83
2022-11-17T06:17:09.574Z,38.83
2022-11-17T06:19:43.963Z,25.25
2022-11-17T06:22:12.767Z,19.02
2022-11-17T06:24:43.067Z,22.27
2022-11-17T06:27:14.624Z,36.47
2022-11-17T06:29:44.914Z,30.00
2022-11-17T06:32:17.738Z,28.08
2022-11-17T06:34:51.924Z,33.08
2022-11-17T06:37:22.059Z,28.60
2022-11-17T06:39:48.858Z,36.55
2022-11-17T06:42:15.561Z,26.60
2022-11-17T06:44:42.398Z,37.08
2022-11-17T06:47:09.084Z,31.85
2022-11-17T06:49:35.838Z,33.05
2022-11-17T06:52:02.571Z,29.73
2022-11-17T06:54:29.406Z,35.67
2022-11-17T06:56:56.173Z,27.50
2022-11-17T06:59:23.013Z,34.92
2022-11-17T07:01:50.105Z,27.00
2022-11-17T07:04:17.086Z,29.73
2022-11-17T07:06:43.878Z,32.78
2022-11-17T07:09:10.620Z,33.65
2022-11-17T07:11:37.665Z,26.05
2022-11-17T07:14:04.452Z,35.20
2022-11-17T07:16:32.781Z,26.83
2022-11-17T07:18:59.975Z,26.02
2022-11-17T07:21:26.797Z,28.58
2022-11-17T07:23:53.612Z,23.45
2022-11-17T07:26:20.491Z,30.08
2022-11-17T07:28:47.332Z,23.25
2022-11-17T07:31:14.314Z,41.22
2022-11-17T07:33:41.455Z,27.48
2022-11-17T07:36:11.642Z,27.33
2022-11-17T07:38:40.556Z,31.00
2022-11-17T07:41:09.914Z,25.77
2022-11-17T07:43:37.382Z,28.77
2022-11-17T07:46:05.814Z,27.75
2022-11-17T07:48:33.567Z,25.83
2022-11-17T07:51:01.436Z,27.42
2022-11-17T07:53:29.034Z,28.88
2022-11-17T07:55:56.135Z,30.52
2022-11-17T07:58:25.477Z,28.75
2022-11-17T08:00:52.325Z,21.33
2022-11-17T08:03:19.174Z,19.23
2022-11-17T08:05:46.024Z,22.45
2022-11-17T08:08:13.719Z,28.40
2022-11-17T08:10:40.902Z,28.98
2022-11-17T08:13:07.838Z,33.50
2022-11-17T08:15:34.983Z,24.98
2022-11-17T08:18:03.378Z,24.02
2022-11-17T08:20:30.452Z,27.17
2022-11-17T08:22:57.541Z,22.90
2022-11-17T08:25:26.933Z,28.08
2022-11-17T08:27:58.257Z,34.80
2022-11-17T08:30:25.919Z,21.00
2022-11-17T08:32:54.671Z,28.48
2022-11-17T08:35:25.704Z,23.42
2022-11-17T08:37:53.341Z,25.42
2022-11-17T08:40:20.316Z,32.85
2022-11-17T08:42:57.521Z,23.98
2022-11-17T08:45:27.412Z,23.73
2022-11-17T08:47:55.658Z,27.20
2022-11-17T08:50:22.434Z,27.23
2022-11-17T08:52:49.285Z,29.40
2022-11-17T08:55:16.107Z,28.67
2022-11-17T08:57:42.866Z,31.98
2022-11-17T09:00:10.617Z,31.90
2022-11-17T09:02:38.238Z,37.15
2022-11-17T09:05:05.600Z,31.60
2022-11-17T09:07:35.834Z,32.97
2022-11-17T09:10:04.432Z,50.60
2022-11-17T09:12:31.160Z,32.53
2022-11-17T09:14:57.858Z,31.88
2022-11-17T09:17:24.574Z,31.30
2022-11-17T09:19:51.411Z,31.92
2022-11-17T09:22:18.209Z,30.10
2022-11-17T09:24:44.862Z,32.78
2022-11-17T09:27:11.672Z,27.42
2022-11-17T09:29:38.351Z,28.23
2022-11-17T09:32:05.340Z,31.02
2022-11-17T09:34:32.181Z,36.13
2022-11-17T09:36:58.986Z,29.13
2022-11-17T09:39:25.720Z,27.40
2022-11-17T09:41:55.090Z,32.53
2022-11-17T09:44:27.879Z,43.05
2022-11-17T09:46:57.569Z,41.03
2022-11-17T09:49:56.945Z,33.55
2022-11-17T09:52:59.239Z,38.67
2022-11-17T09:55:35.866Z,52.55
2022-11-17T09:58:14.470Z,37.38
2022-11-17T10:00:43.760Z,38.60
2022-11-17T10:03:20.043Z,34.25
2022-11-17T10:05:48.087Z,31.60
2022-11-17T10:08:47.390Z,58.63
2022-11-17T10:11:35.317Z,39.83
2022-11-17T10:14:08.194Z,26.45
2022-11-17T10:16:36.973Z,32.88
2022-11-17T10:19:34.683Z,28.50
2022-11-17T10:22:05.113Z,30.88
2022-11-17T10:24:35.014Z,32.60
2022-11-17T10:27:24.749Z,37.90
2022-11-17T10:30:20.675Z,38.00
2022-11-17T10:32:55.708Z,31.05
2022-11-17T10:35:25.213Z,34.25
2022-11-17T10:38:20.950Z,36.97
2022-11-17T10:40:50.762Z,30.88
2022-11-17T10:43:35.141Z,43.88
2022-11-17T10:46:15.852Z,38.10
2022-11-17T10:49:05.168Z,38.97
2022-11-17T10:51:33.865Z,41.00
2022-11-17T10:54:15.956Z,41.00
2022-11-17T10:56:49.893Z,29.83
2022-11-17T10:59:30.429Z,33.47
2022-11-17T11:01:58.339Z,25.85
2022-11-17T11:04:42.093Z,31.25
2022-11-17T11:07:28.690Z,35.97
2022-11-17T11:10:18.218Z,32.47
2022-11-17T11:12:51.187Z,27.90
2022-11-17T11:15:22.887Z,85.63
2022-11-17T11:17:50.961Z,120.00
2022-11-17T11:20:31.329Z,59.13
2022-11-17T11:23:09.884Z,79.65
2022-11-17T11:25:50.963Z,95.30
2022-11-17T11:28:38.095Z,72.93
2022-11-17T11:31:46.983Z,105.35
2022-11-17T11:34:45.255Z,89.53
2022-11-17T11:37:13.672Z,57.40
2022-11-17T11:40:10.524Z,59.47
2022-11-17T11:42:56.586Z,98.72
2022-11-17T11:45:36.771Z,101.93
2022-11-17T11:48:12.996Z,65.20
2022-11-17T11:50:51.628Z,147.32
2022-11-17T11:53:31.031Z,55.05
2022-11-17T11:56:12.294Z,39.20
2022-11-17T11:58:46.754Z,50.40
2022-11-17T12:01:17.309Z,35.78
2022-11-17T12:04:16.458Z,63.25
2022-11-17T12:07:14.066Z,55.65
2022-11-17T12:09:55.713Z,56.53
2022-11-17T12:12:35.710Z,45.53
2022-11-17T12:15:21.115Z,47.30
2022-11-17T12:18:09.452Z,44.95
2022-11-17T12:20:47.478Z,19.90
2022-11-17T12:23:29.376Z,35.65
2022-11-17T12:25:58.440Z,40.10
2022-11-17T12:28:41.973Z,36.30
2022-11-17T12:33:54.030Z,44.15
2022-11-17T12:36:29.843Z,26.90
2022-11-17T12:39:18.059Z,36.53
2022-11-17T12:41:54.561Z,37.67
2022-11-17T12:44:44.261Z,27.30
2022-11-17T12:47:17.156Z,31.27
2022-11-17T12:49:51.048Z,37.25
2022-11-17T12:52:46.686Z,34.03
2022-11-17T12:55:24.337Z,34.70
2022-11-17T12:57:59.319Z,47.17
2022-11-17T13:00:28.801Z,34.45
2022-11-17T13:03:11.860Z,54.08
2022-11-17T13:05:38.616Z,26.92
2022-11-17T13:08:18.733Z,27.83
2022-11-17T13:10:45.370Z,44.20
2022-11-17T13:13:21.666Z,28.55
2022-11-17T13:15:54.568Z,34.83
2022-11-17T13:18:38.253Z,36.85
2022-11-17T13:21:17.682Z,30.83
2022-11-17T13:23:45.429Z,47.25
2022-11-17T13:26:21.853Z,33.47
2022-11-17T13:29:01.901Z,53.38
2022-11-17T13:31:28.941Z,29.85
2022-11-17T13:34:10.329Z,44.53
2022-11-17T13:36:37.193Z,39.00
2022-11-17T13:39:03.982Z,48.15
2022-11-17T13:41:40.159Z,30.65
2022-11-17T13:44:12.772Z,48.83
2022-11-17T13:46:39.768Z,50.90
2022-11-17T13:49:32.640Z,42.60
2022-11-17T13:51:59.553Z,44.83
2022-11-17T13:54:26.515Z,27.70
2022-11-17T13:57:25.983Z,33.20
2022-11-17T13:59:53.832Z,47.65
2022-11-17T14:02:20.511Z,33.97
2022-11-17T14:05:13.425Z,36.85
2022-11-17T14:07:41.708Z,53.33
2022-11-17T14:10:20.342Z,63.45
2022-11-17T14:12:48.678Z,42.03
2022-11-17T14:15:42.111Z,34.55
2022-11-17T14:18:29.680Z,44.47
2022-11-17T14:21:11.635Z,44.65
2022-11-17T14:23:38.929Z,29.20
2022-11-17T14:26:06.361Z,40.97
2022-11-17T14:28:33.202Z,45.13
2022-11-17T14:31:00.112Z,50.50
2022-11-17T14:33:28.165Z,50.70
2022-11-17T14:35:58.516Z,51.60
2022-11-17T14:38:25.719Z,61.35
2022-11-17T14:40:53.338Z,44.45
2022-11-17T14:43:21.454Z,37.13
2022-11-17T14:45:49.019Z,35.30
2022-11-17T14:48:19.258Z,40.00
2022-11-17T14:50:47.431Z,42.38
2022-11-17T14:53:14.374Z,51.38
2022-11-17T14:55:41.020Z,38.85
2022-11-17T14:58:07.855Z,40.28
2022-11-17T15:00:34.558Z,25.35
2022-11-17T15:03:01.358Z,33.40
2022-11-17T15:05:28.252Z,46.55
2022-11-17T15:07:56.742Z,42.65
2022-11-17T15:10:23.898Z,36.55
2022-11-17T15:12:50.773Z,33.72
2022-11-17T15:15:18.244Z,39.03
2022-11-17T15:17:45.043Z,38.17
2022-11-17T15:20:12.109Z,30.25
2022-11-17T15:22:39.016Z,39.13
2022-11-17T15:25:06.278Z,40.33
2022-11-17T15:27:32.961Z,39.15
2022-11-17T15:29:59.714Z,40.33
2022-11-17T15:32:26.450Z,37.05
2022-11-17T15:34:53.178Z,30.63
2022-11-17T15:37:19.862Z,35.10
2022-11-17T15:39:46.558Z,33.58
2022-11-17T15:42:13.248Z,30.13
2022-11-17T15:44:40.011Z,35.28
2022-11-17T15:47:06.758Z,39.30
2022-11-17T15:49:33.432Z,33.45
2022-11-17T15:52:00.170Z,41.60
2022-11-17T15:54:26.962Z,43.28
2022-11-17T15:56:53.747Z,35.45
2022-11-17T15:59:20.791Z,36.00
2022-11-17T16:01:47.820Z,36.22
2022-11-17T16:04:18.424Z,41.17
2022-11-17T16:06:46.682Z,41.10
2022-11-17T16:09:14.832Z,23.75
2022-11-17T16:11:42.007Z,26.75
2022-11-17T16:14:09.377Z,21.10
2022-11-17T16:16:38.106Z,22.58
2022-11-17T16:19:05.643Z,24.83
2022-11-17T16:21:32.408Z,31.15
2022-11-17T16:24:00.937Z,37.72
2022-11-17T16:26:28.920Z,34.15
2022-11-17T16:29:06.823Z,29.83
2022-11-17T16:31:35.954Z,31.55
2022-11-17T16:34:05.802Z,31.33
2022-11-17T16:36:36.830Z,32.15
2022-11-17T16:39:06.327Z,29.38
2022-11-17T16:41:35.771Z,31.23
2022-11-17T16:44:06.206Z,33.58
2022-11-17T16:46:32.933Z,30.92
2022-11-17T16:49:06.030Z,26.60
2022-11-17T16:51:33.422Z,33.78
2022-11-17T16:54:02.967Z,38.13
2022-11-17T16:56:30.251Z,35.70
2022-11-17T16:58:57.470Z,53.25
2022-11-17T17:01:27.011Z,46.63
2022-11-17T17:03:58.646Z,48.83
2022-11-17T17:06:26.326Z,24.83
2022-11-17T17:08:58.083Z,63.00
2022-11-17T17:11:25.223Z,55.00
2022-11-17T17:13:51.875Z,49.75
2022-11-17T17:16:20.243Z,44.05
2022-11-17T17:18:46.915Z,40.33
2022-11-17T17:21:17.483Z,27.80
2022-11-17T17:23:45.792Z,29.65
2022-11-17T17:26:16.732Z,24.08
2022-11-17T17:28:45.280Z,28.35
2022-11-17T17:31:20.760Z,31.45
2022-11-17T17:33:48.440Z,40.08
2022-11-17T17:36:18.023Z,30.52
2022-11-17T17:38:48.839Z,36.58
2022-11-17T17:41:19.778Z,41.42
2022-11-17T17:43:47.518Z,34.80
2022-11-17T17:46:17.455Z,26.98
2022-11-17T17:48:45.554Z,27.65
2022-11-17T17:51:18.638Z,22.75
2022-11-17T17:53:45.691Z,25.73
2022-11-17T17:56:14.022Z,39.80
2022-11-17T17:58:41.517Z,27.70
2022-11-17T18:01:19.831Z,28.23
2022-11-17T18:03:48.302Z,29.80
2022-11-17T18:06:16.887Z,28.83
2022-11-17T18:08:43.835Z,23.55
2022-11-17T18:11:13.413Z,31.58
2022-11-17T18:13:42.549Z,27.83
2022-11-17T18:16:12.058Z,28.80
2022-11-17T18:18:39.355Z,23.38
2022-11-17T18:21:08.681Z,33.42
2022-11-17T18:23:36.013Z,33.25
2022-11-17T18:26:10.693Z,28.75
2022-11-17T18:28:39.580Z,26.52
2022-11-17T18:31:08.092Z,27.55
2022-11-17T18:33:35.542Z,25.75
2022-11-17T18:36:07.161Z,38.97
2022-11-17T18:38:36.068Z,89.20
2022-11-17T18:41:08.495Z,57.15
2022-11-17T18:43:36.361Z,51.63
2022-11-17T18:46:08.892Z,35.60
2022-11-17T18:48:37.507Z,38.63
2022-11-17T18:51:22.245Z,40.33
2022-11-17T18:53:50.343Z,32.35
2022-11-17T18:56:20.091Z,32.75
2022-11-17T18:58:47.227Z,35.55
2022-11-17T19:01:18.707Z,23.95
2022-11-17T19:03:48.376Z,22.63
2022-11-17T19:06:16.681Z,25.13
2022-11-17T19:08:43.428Z,27.23
2022-11-17T19:11:11.837Z,26.92
2022-11-17T19:13:40.013Z,27.23
2022-11-17T19:16:09.712Z,31.48
2022-11-17T19:18:36.996Z,34.08
2022-11-17T19:21:14.949Z,22.10
2022-11-17T19:23:49.540Z,32.90
2022-11-17T19:26:24.591Z,27.98
2022-11-17T19:28:58.969Z,18.95
2022-11-17T19:31:26.354Z,21.40
2022-11-17T19:33:53.508Z,34.10
2022-11-17T19:36:22.487Z,22.27
2022-11-17T19:38:50.976Z,21.65
2022-11-17T19:41:20.286Z,32.75
2022-11-17T19:43:47.331Z,24.63
2022-11-17T19:46:16.643Z,20.30
2022-11-17T19:48:44.315Z,30.25
2022-11-17T19:51:15.837Z,33.78
2022-11-17T19:53:42.961Z,33.20
2022-11-17T19:56:10.138Z,48.05
2022-11-17T19:58:36.832Z,37.38
2022-11-17T20:01:19.832Z,21.23
2022-11-17T20:03:47.323Z,21.70
2022-11-17T20:06:17.199Z,24.40
2022-11-17T20:08:44.446Z,31.35
2022-11-17T20:11:22.822Z,32.38
2022-11-17T20:13:50.166Z,26.27
2022-11-17T20:16:21.474Z,25.10
2022-11-17T20:18:56.432Z,28.73
2022-11-17T20:21:24.516Z,28.60
2022-11-17T20:23:51.292Z,26.23
2022-11-17T20:26:30.157Z,38.08
2022-11-17T20:28:58.011Z,35.33
2022-11-17T20:31:27.290Z,37.65
2022-11-17T20:33:57.623Z,23.67
2022-11-17T20:36:24.462Z,24.00
2022-11-17T20:38:52.999Z,27.67
2022-11-17T20:41:21.285Z,30.73
2022-11-17T20:43:49.326Z,24.42
2022-11-17T20:46:16.675Z,27.52
2022-11-17T20:48:43.777Z,19.02
2022-11-17T20:51:13.190Z,21.27
2022-11-17T20:53:41.385Z,26.10
2022-11-17T20:56:10.334Z,26.70
2022-11-17T20:58:37.940Z,26.88
2022-11-17T21:01:16.724Z,28.58
2022-11-17T21:03:43.903Z,20.02
2022-11-17T21:06:11.339Z,26.42
2022-11-17T21:08:39.990Z,31.98
2022-11-17T21:11:09.745Z,31.35
2022-11-17T21:13:37.778Z,26.33
2022-11-17T21:16:09.585Z,18.80
2022-11-17T21:18:38.189Z,24.50
2022-11-17T21:21:09.131Z,30.52
2022-11-17T21:23:37.683Z,25.00
2022-11-17T21:26:07.079Z,31.75
2022-11-17T21:28:34.953Z,29.02
2022-11-17T21:31:12.920Z,27.13
2022-11-17T21:33:40.442Z,28.40
2022-11-17T21:36:15.668Z,25.95
2022-11-17T21:38:44.254Z,23.25
2022-11-17T21:41:14.301Z,30.58
2022-11-17T21:43:43.110Z,31.35
2022-11-17T21:46:12.633Z,29.83
2022-11-17T21:48:39.916Z,26.90
2022-11-17T21:51:13.771Z,21.90
2022-11-17T21:53:40.695Z,20.67
2022-11-17T21:56:07.810Z,32.28
2022-11-17T21:58:34.937Z,23.20
2022-11-17T22:01:10.591Z,31.08
2022-11-17T22:03:38.341Z,22.13
2022-11-17T22:06:25.991Z,43.28
2022-11-17T22:08:54.474Z,21.48
2022-11-17T22:11:36.376Z,27.70
2022-11-17T22:14:14.393Z,30.92
2022-11-17T22:16:43.526Z,26.17
2022-11-17T22:19:11.273Z,32.13
2022-11-17T22:21:39.079Z,22.83
2022-11-17T22:24:07.442Z,34.33
2022-11-17T22:26:37.107Z,34.95
2022-11-17T22:29:05.727Z,28.33
2022-11-17T22:31:32.438Z,24.15
2022-11-17T22:33:59.121Z,26.25
2022-11-17T22:36:25.869Z,27.45
2022-11-17T22:38:53.414Z,26.27
2022-11-17T22:41:21.766Z,28.95
2022-11-17T22:43:53.156Z,26.88
2022-11-17T22:46:21.798Z,29.73
2022-11-17T22:48:48.691Z,27.95
2022-11-17T22:51:38.700Z,35.20
2022-11-17T22:54:06.631Z,30.88
2022-11-17T22:56:33.970Z,27.88
2022-11-17T22:59:01.064Z,30.58
2022-11-17T23:01:27.836Z,26.48
2022-11-17T23:03:54.648Z,26.83
2022-11-17T23:06:22.889Z,28.20
2022-11-17T23:08:50.613Z,26.05
2022-11-17T23:14:09.670Z,30.02
2022-11-17T23:16:37.646Z,32.25
2022-11-17T23:19:05.627Z,26.17
2022-11-17T23:21:32.337Z,33.13
2022-11-17T23:23:59.029Z,35.72
2022-11-17T23:26:25.655Z,28.33
2022-11-17T23:28:52.546Z,36.95
2022-11-17T23:31:19.483Z,20.23
2022-11-17T23:33:47.798Z,27.17
2022-11-17T23:36:14.449Z,25.15
2022-11-17T23:38:41.207Z,25.83
2022-11-17T23:41:10.598Z,24.10
2022-11-17T23:43:37.305Z,27.15
2022-11-17T23:46:13.326Z,23.75
2022-11-17T23:48:40.948Z,22.25
2022-11-17T23:51:13.006Z,26.92
2022-11-17T23:53:39.785Z,34.10
2022-11-17T23:56:07.630Z,33.22
2022-11-17T23:58:34.605Z,28.95
